createdAt,value
2022-09-23T00:00:03.594Z,0.00
2022-09-23T00:01:03.637Z,0.00
2022-09-23T00:02:03.624Z,0.00
2022-09-23T00:03:03.569Z,0.00
2022-09-23T00:04:03.580Z,0.00
2022-09-23T00:05:03.539Z,0.00
2022-09-23T00:06:03.536Z,0.00
2022-09-23T00:07:03.532Z,0.00
2022-09-23T00:08:03.516Z,0.00
2022-09-23T00:09:03.535Z,0.00
2022-09-23T00:10:03.491Z,0.00
2022-09-23T00:11:03.480Z,0.00
2022-09-23T00:12:08.140Z,0.00
2022-09-23T00:13:04.462Z,0.00
2022-09-23T00:14:03.468Z,0.00
2022-09-23T00:15:03.438Z,0.00
2022-09-23T00:16:03.430Z,0.00
2022-09-23T00:17:03.480Z,0.00
2022-09-23T00:18:03.421Z,0.00
2022-09-23T00:19:03.413Z,0.00
2022-09-23T00:20:03.399Z,0.00
2022-09-23T00:21:03.379Z,0.00
2022-09-23T00:22:03.360Z,0.00
2022-09-23T00:23:03.359Z,0.00
2022-09-23T00:24:03.369Z,0.00
2022-09-23T00:25:03.344Z,0.00
2022-09-23T00:26:03.323Z,0.00
2022-09-23T00:27:03.313Z,0.00
2022-09-23T00:28:03.315Z,0.00
2022-09-23T00:29:03.292Z,0.00
2022-09-23T00:30:03.300Z,0.00
2022-09-23T00:31:03.369Z,0.00
2022-09-23T00:32:03.261Z,0.00
2022-09-23T00:33:03.254Z,0.00
2022-09-23T00:34:03.241Z,0.00
2022-09-23T00:35:03.243Z,0.00
2022-09-23T00:36:03.231Z,0.00
2022-09-23T00:37:03.212Z,0.00
2022-09-23T00:38:03.242Z,0.00
2022-09-23T00:39:04.403Z,0.00
2022-09-23T00:40:03.232Z,0.00
2022-09-23T00:41:03.164Z,0.00
2022-09-23T00:42:03.164Z,0.00
2022-09-23T00:43:03.158Z,0.00
2022-09-23T00:44:03.153Z,0.00
2022-09-23T00:45:03.124Z,0.00
2022-09-23T00:46:03.146Z,0.00
2022-09-23T00:47:03.148Z,0.00
2022-09-23T00:48:03.107Z,0.00
2022-09-23T00:49:03.096Z,0.00
2022-09-23T00:50:03.073Z,0.00
2022-09-23T00:51:03.065Z,0.00
2022-09-23T00:52:03.075Z,0.00
2022-09-23T00:53:03.036Z,0.00
2022-09-23T00:54:03.055Z,0.00
2022-09-23T00:55:03.032Z,0.00
2022-09-23T00:56:03.018Z,0.00
2022-09-23T00:57:02.996Z,0.00
2022-09-23T00:58:02.997Z,0.00
2022-09-23T00:59:03.004Z,0.00
2022-09-23T01:00:02.965Z,0.00
2022-09-23T01:01:02.996Z,0.00
2022-09-23T01:02:03.019Z,0.00
2022-09-23T01:03:02.939Z,0.00
2022-09-23T01:04:02.928Z,0.00
2022-09-23T01:05:02.936Z,0.00
2022-09-23T01:06:02.899Z,0.00
2022-09-23T01:07:02.907Z,0.00
2022-09-23T01:08:02.906Z,0.00
2022-09-23T01:09:02.923Z,0.00
2022-09-23T01:10:03.143Z,0.00
2022-09-23T01:11:02.856Z,0.00
2022-09-23T01:12:02.840Z,0.00
2022-09-23T01:13:02.828Z,0.00
2022-09-23T01:14:02.839Z,0.00
2022-09-23T01:15:02.814Z,0.00
2022-09-23T01:16:02.802Z,0.00
2022-09-23T01:17:02.848Z,0.00
2022-09-23T01:18:02.780Z,0.00
2022-09-23T01:19:02.797Z,0.00
2022-09-23T01:20:02.764Z,0.00
2022-09-23T01:21:02.764Z,0.00
2022-09-23T01:22:02.738Z,0.00
2022-09-23T01:23:02.734Z,0.00
2022-09-23T01:24:02.780Z,0.00
2022-09-23T01:25:02.730Z,0.00
2022-09-23T01:26:02.698Z,0.00
2022-09-23T01:27:02.680Z,0.00
2022-09-23T01:28:02.690Z,0.00
2022-09-23T01:29:02.680Z,0.00
2022-09-23T01:30:02.672Z,0.00
2022-09-23T01:31:02.717Z,0.00
2022-09-23T01:32:02.662Z,0.00
2022-09-23T01:33:02.622Z,0.00
2022-09-23T01:34:02.613Z,0.00
2022-09-23T01:35:02.601Z,0.00
2022-09-23T01:36:02.593Z,0.00
2022-09-23T01:37:02.602Z,0.00
2022-09-23T01:38:02.563Z,0.00
2022-09-23T01:39:02.594Z,0.00
2022-09-23T01:40:02.758Z,0.00
2022-09-23T01:41:02.542Z,0.00
2022-09-23T01:42:02.541Z,0.00
2022-09-23T01:43:02.513Z,0.00
2022-09-23T01:44:02.534Z,0.00
2022-09-23T01:45:02.495Z,0.00
2022-09-23T01:46:02.484Z,0.00
2022-09-23T01:47:02.474Z,0.00
2022-09-23T01:48:02.530Z,0.00
2022-09-23T01:49:02.465Z,0.00
2022-09-23T01:50:02.444Z,0.00
2022-09-23T01:51:02.434Z,0.00
2022-09-23T01:52:02.445Z,0.00
2022-09-23T01:53:02.414Z,0.00
2022-09-23T01:54:02.401Z,0.00
2022-09-23T01:55:02.385Z,0.00
2022-09-23T01:56:02.444Z,0.00
2022-09-23T01:57:02.375Z,0.00
2022-09-23T01:58:02.375Z,0.00
2022-09-23T01:59:02.348Z,0.00
2022-09-23T02:00:02.337Z,0.00
2022-09-23T02:01:02.388Z,0.00
2022-09-23T02:02:02.383Z,0.00
2022-09-23T02:03:02.316Z,0.00
2022-09-23T02:04:02.382Z,0.00
2022-09-23T02:05:02.289Z,0.00
2022-09-23T02:06:02.279Z,0.00
2022-09-23T02:07:02.279Z,0.00
2022-09-23T02:08:02.245Z,0.00
2022-09-23T02:09:02.252Z,0.00
2022-09-23T02:10:02.237Z,0.00
2022-09-23T02:11:02.217Z,0.00
2022-09-23T02:12:02.230Z,0.00
2022-09-23T02:13:02.199Z,0.00
2022-09-23T02:14:02.189Z,0.00
2022-09-23T02:15:02.188Z,0.00
2022-09-23T02:16:02.192Z,0.00
2022-09-23T02:17:02.210Z,0.00
2022-09-23T02:18:02.149Z,0.00
2022-09-23T02:19:02.189Z,0.00
2022-09-23T02:20:02.161Z,0.00
2022-09-23T02:21:02.114Z,0.00
2022-09-23T02:22:02.124Z,0.00
2022-09-23T02:23:02.092Z,0.00
2022-09-23T02:24:02.091Z,0.00
2022-09-23T02:25:02.098Z,0.00
2022-09-23T02:26:02.068Z,0.00
2022-09-23T02:27:02.061Z,0.00
2022-09-23T02:28:02.041Z,0.00
2022-09-23T02:29:02.111Z,0.00
2022-09-23T02:30:02.033Z,0.00
2022-09-23T02:31:02.029Z,0.00
2022-09-23T02:32:02.104Z,0.00
2022-09-23T02:33:01.981Z,0.00
2022-09-23T02:34:02.001Z,0.00
2022-09-23T02:35:01.962Z,0.00
2022-09-23T02:36:01.956Z,0.00
2022-09-23T02:37:01.951Z,0.00
2022-09-23T02:38:01.961Z,0.00
2022-09-23T02:39:01.933Z,0.00
2022-09-23T02:40:01.911Z,0.00
2022-09-23T02:41:01.906Z,0.00
2022-09-23T02:42:01.893Z,0.00
2022-09-23T02:43:01.901Z,0.00
2022-09-23T02:44:01.912Z,0.00
2022-09-23T02:45:01.874Z,0.00
2022-09-23T02:46:01.879Z,0.00
2022-09-23T02:47:01.844Z,0.00
2022-09-23T02:48:01.862Z,0.00
2022-09-23T02:49:01.842Z,0.00
2022-09-23T02:50:01.810Z,0.00
2022-09-23T02:51:01.812Z,0.00
2022-09-23T02:52:01.785Z,0.00
2022-09-23T02:53:01.785Z,0.00
2022-09-23T02:54:01.814Z,0.00
2022-09-23T02:55:01.762Z,0.00
2022-09-23T02:56:01.755Z,0.00
2022-09-23T02:57:01.743Z,0.00
2022-09-23T02:58:01.724Z,0.00
2022-09-23T02:59:01.735Z,0.00
2022-09-23T03:00:01.709Z,0.00
2022-09-23T03:01:01.757Z,0.00
2022-09-23T03:02:01.734Z,0.00
2022-09-23T03:03:01.676Z,0.00
2022-09-23T03:04:01.687Z,0.00
2022-09-23T03:05:01.660Z,0.00
2022-09-23T03:06:01.653Z,0.00
2022-09-23T03:07:01.643Z,0.00
2022-09-23T03:08:01.645Z,0.00
2022-09-23T03:09:01.606Z,0.00
2022-09-23T03:10:01.609Z,0.00
2022-09-23T03:11:01.590Z,0.00
2022-09-23T03:12:01.597Z,0.00
2022-09-23T03:13:01.580Z,0.00
2022-09-23T03:14:01.568Z,0.00
2022-09-23T03:15:01.548Z,0.00
2022-09-23T03:16:01.577Z,0.00
2022-09-23T03:17:01.540Z,0.00
2022-09-23T03:18:01.537Z,0.00
2022-09-23T03:19:01.508Z,0.00
2022-09-23T03:20:01.516Z,0.00
2022-09-23T03:21:01.492Z,0.00
2022-09-23T03:22:01.478Z,0.00
2022-09-23T03:23:01.482Z,0.00
2022-09-23T03:24:01.565Z,0.00
2022-09-23T03:25:01.455Z,0.00
2022-09-23T03:26:01.438Z,0.00
2022-09-23T03:27:01.431Z,0.00
2022-09-23T03:28:01.446Z,0.00
2022-09-23T03:29:01.400Z,0.00
2022-09-23T03:30:01.400Z,0.00
2022-09-23T03:31:01.381Z,0.00
2022-09-23T03:32:01.438Z,0.00
2022-09-23T03:33:01.381Z,0.00
2022-09-23T03:34:01.353Z,0.00
2022-09-23T03:35:01.341Z,0.00
2022-09-23T03:36:01.333Z,0.00
2022-09-23T03:37:01.320Z,0.00
2022-09-23T03:38:01.330Z,0.00
2022-09-23T03:39:01.334Z,0.00
2022-09-23T03:40:01.293Z,0.00
2022-09-23T03:41:01.298Z,0.00
2022-09-23T03:42:01.273Z,0.00
2022-09-23T03:43:01.284Z,0.00
2022-09-23T03:44:01.254Z,0.00
2022-09-23T03:45:01.234Z,0.00
2022-09-23T03:46:01.331Z,0.00
2022-09-23T03:47:01.231Z,0.00
2022-09-23T03:48:01.209Z,0.00
2022-09-23T03:49:02.887Z,0.00
2022-09-23T03:50:01.192Z,0.00
2022-09-23T03:51:01.193Z,0.00
2022-09-23T03:52:01.183Z,0.00
2022-09-23T03:53:01.164Z,0.00
2022-09-23T03:54:01.144Z,0.00
2022-09-23T03:55:01.154Z,0.00
2022-09-23T03:56:01.144Z,0.00
2022-09-23T03:57:01.114Z,0.00
2022-09-23T03:58:01.094Z,0.00
2022-09-23T03:59:01.113Z,0.00
2022-09-23T04:00:01.084Z,0.00
2022-09-23T04:01:01.134Z,0.00
2022-09-23T04:02:01.110Z,0.00
2022-09-23T04:03:01.055Z,0.00
2022-09-23T04:04:01.045Z,0.00
2022-09-23T04:05:01.037Z,0.00
2022-09-23T04:06:01.017Z,0.00
2022-09-23T04:07:01.030Z,0.00
2022-09-23T04:08:01.004Z,0.00
2022-09-23T04:09:00.997Z,0.00
2022-09-23T04:10:00.984Z,0.00
2022-09-23T04:11:00.964Z,0.00
2022-09-23T04:12:00.984Z,0.00
2022-09-23T04:13:00.905Z,0.00
2022-09-23T04:14:00.945Z,0.00
2022-09-23T04:15:00.958Z,0.00
2022-09-23T04:16:00.946Z,0.00
2022-09-23T04:17:00.875Z,0.00
2022-09-23T04:18:00.847Z,0.00
2022-09-23T04:19:02.075Z,0.00
2022-09-23T04:20:00.816Z,0.00
2022-09-23T04:21:00.886Z,0.00
2022-09-23T04:22:00.877Z,0.00
2022-09-23T04:23:00.807Z,0.00
2022-09-23T04:24:00.799Z,0.00
2022-09-23T04:25:00.767Z,0.00
2022-09-23T04:26:00.784Z,0.00
2022-09-23T04:27:00.759Z,0.00
2022-09-23T04:28:00.748Z,0.00
2022-09-23T04:29:00.728Z,0.00
2022-09-23T04:30:00.747Z,0.00
2022-09-23T04:31:00.708Z,0.00
2022-09-23T04:32:00.751Z,0.00
2022-09-23T04:33:00.700Z,0.00
2022-09-23T04:34:00.709Z,0.00
2022-09-23T04:35:00.670Z,0.00
2022-09-23T04:36:00.659Z,0.00
2022-09-23T04:37:00.661Z,0.00
2022-09-23T04:38:00.650Z,0.00
2022-09-23T04:39:00.671Z,0.00
2022-09-23T04:40:00.618Z,0.00
2022-09-23T04:41:00.605Z,0.00
2022-09-23T04:42:00.616Z,0.00
2022-09-23T04:43:00.612Z,0.00
2022-09-23T04:44:00.570Z,0.00
2022-09-23T04:45:00.574Z,0.00
2022-09-23T04:46:00.562Z,0.00
2022-09-23T04:47:00.568Z,5.62
2022-09-23T04:48:00.554Z,5.62
2022-09-23T04:49:02.176Z,5.62
2022-09-23T04:50:00.586Z,5.62
2022-09-23T04:51:00.728Z,5.62
2022-09-23T04:52:00.639Z,5.62
2022-09-23T04:53:00.555Z,5.62
2022-09-23T04:54:00.491Z,11.25
2022-09-23T04:55:00.464Z,11.25
2022-09-23T04:56:00.457Z,11.25
2022-09-23T04:57:00.469Z,11.25
2022-09-23T04:58:00.463Z,11.25
2022-09-23T04:59:00.450Z,16.88
2022-09-23T05:00:00.423Z,16.88
2022-09-23T05:01:05.004Z,16.88
2022-09-23T05:02:00.471Z,16.88
2022-09-23T05:03:00.384Z,16.88
2022-09-23T05:04:00.372Z,22.50
2022-09-23T05:05:00.362Z,22.50
2022-09-23T05:06:00.374Z,22.50
2022-09-23T05:07:03.258Z,22.50
2022-09-23T05:08:00.334Z,28.12
2022-09-23T05:09:00.367Z,28.12
2022-09-23T05:10:00.303Z,28.12
2022-09-23T05:11:00.296Z,33.75
2022-09-23T05:12:00.304Z,33.75
2022-09-23T05:13:00.299Z,33.75
2022-09-23T05:14:00.265Z,33.75
2022-09-23T05:15:00.257Z,39.38
2022-09-23T05:16:00.276Z,39.38
2022-09-23T05:17:00.273Z,39.38
2022-09-23T05:18:00.236Z,45.00
2022-09-23T05:19:01.360Z,45.00
2022-09-23T05:20:00.215Z,45.00
2022-09-23T05:21:00.186Z,50.62
2022-09-23T05:22:00.170Z,50.62
2022-09-23T05:23:00.192Z,50.62
2022-09-23T05:24:00.162Z,56.25
2022-09-23T05:25:00.157Z,56.25
2022-09-23T05:26:00.157Z,56.25
2022-09-23T05:27:00.126Z,67.50
2022-09-23T05:28:00.136Z,112.50
2022-09-23T05:29:00.215Z,163.12
2022-09-23T05:30:00.130Z,185.62
2022-09-23T05:31:00.157Z,213.75
2022-09-23T05:32:00.213Z,236.25
2022-09-23T05:33:00.068Z,247.50
2022-09-23T05:34:00.073Z,247.50
2022-09-23T05:35:00.059Z,219.38
2022-09-23T05:36:00.051Z,230.62
2022-09-23T05:37:00.038Z,230.62
2022-09-23T05:38:00.027Z,225.00
2022-09-23T05:39:00.095Z,236.25
2022-09-23T05:39:59.989Z,225.00
2022-09-23T05:40:59.998Z,219.38
2022-09-23T05:41:59.979Z,208.12
2022-09-23T05:42:59.980Z,191.25
2022-09-23T05:43:59.959Z,180.00
2022-09-23T05:44:59.938Z,174.38
2022-09-23T05:45:59.928Z,174.38
2022-09-23T05:46:59.974Z,168.75
2022-09-23T05:47:59.937Z,168.75
2022-09-23T05:49:03.314Z,168.75
2022-09-23T05:50:00.645Z,168.75
2022-09-23T05:50:59.880Z,174.38
2022-09-23T05:51:59.880Z,174.38
2022-09-23T05:52:59.882Z,174.38
2022-09-23T05:53:59.863Z,174.38
2022-09-23T05:54:59.831Z,180.00
2022-09-23T05:55:59.889Z,185.62
2022-09-23T05:57:02.695Z,191.25
2022-09-23T05:58:00.800Z,180.00
2022-09-23T05:58:59.806Z,140.62
2022-09-23T05:59:59.781Z,118.12
2022-09-23T06:00:59.780Z,118.12
2022-09-23T06:01:59.825Z,118.12
2022-09-23T06:02:59.836Z,118.12
2022-09-23T06:03:59.805Z,118.12
2022-09-23T06:04:59.732Z,118.12
2022-09-23T06:05:59.724Z,118.12
2022-09-23T06:07:03.290Z,118.12
2022-09-23T06:07:59.726Z,123.75
2022-09-23T06:08:59.756Z,123.75
2022-09-23T06:09:59.682Z,123.75
2022-09-23T06:10:59.664Z,123.75
2022-09-23T06:11:59.694Z,123.75
2022-09-23T06:12:59.668Z,123.75
2022-09-23T06:13:59.665Z,123.75
2022-09-23T06:14:59.622Z,129.38
2022-09-23T06:15:59.671Z,129.38
2022-09-23T06:16:59.608Z,129.38
2022-09-23T06:17:59.604Z,129.38
2022-09-23T06:19:05.248Z,129.38
2022-09-23T06:19:59.578Z,129.38
2022-09-23T06:20:59.565Z,129.38
2022-09-23T06:21:59.563Z,135.00
2022-09-23T06:22:59.552Z,135.00
2022-09-23T06:23:59.540Z,135.00
2022-09-23T06:24:59.532Z,135.00
2022-09-23T06:25:59.507Z,135.00
2022-09-23T06:26:59.498Z,140.62
2022-09-23T06:27:59.514Z,140.62
2022-09-23T06:28:59.476Z,146.25
2022-09-23T06:29:59.475Z,146.25
2022-09-23T06:30:59.481Z,146.25
2022-09-23T06:31:59.476Z,146.25
2022-09-23T06:32:59.451Z,146.25
2022-09-23T06:34:09.704Z,146.25
2022-09-23T06:35:00.428Z,146.25
2022-09-23T06:36:00.032Z,146.25
2022-09-23T06:37:04.844Z,146.25
2022-09-23T06:38:00.406Z,146.25
2022-09-23T06:38:59.376Z,146.25
2022-09-23T06:39:59.368Z,146.25
2022-09-23T06:40:59.360Z,151.88
2022-09-23T06:41:59.361Z,157.50
2022-09-23T06:42:59.352Z,163.12
2022-09-23T06:43:59.334Z,163.12
2022-09-23T06:44:59.323Z,168.75
2022-09-23T06:45:59.299Z,168.75
2022-09-23T06:46:59.349Z,174.38
2022-09-23T06:47:59.271Z,174.38
2022-09-23T06:49:00.665Z,180.00
2022-09-23T06:49:59.255Z,180.00
2022-09-23T06:50:59.255Z,180.00
2022-09-23T06:51:59.271Z,180.00
2022-09-23T06:52:59.461Z,180.00
2022-09-23T06:53:59.342Z,185.62
2022-09-23T06:54:59.273Z,185.62
2022-09-23T06:55:59.214Z,191.25
2022-09-23T06:56:59.215Z,191.25
2022-09-23T06:57:59.183Z,196.88
2022-09-23T06:58:59.164Z,196.88
2022-09-23T06:59:59.432Z,196.88
2022-09-23T07:00:59.154Z,202.50
2022-09-23T07:01:59.231Z,202.50
2022-09-23T07:02:59.228Z,208.12
2022-09-23T07:03:59.219Z,208.12
2022-09-23T07:04:59.108Z,213.75
2022-09-23T07:05:59.132Z,219.38
2022-09-23T07:06:59.083Z,219.38
2022-09-23T07:07:59.101Z,225.00
2022-09-23T07:08:59.065Z,230.62
2022-09-23T07:09:59.055Z,230.62
2022-09-23T07:10:59.047Z,236.25
2022-09-23T07:11:59.031Z,236.25
2022-09-23T07:12:59.036Z,241.88
2022-09-23T07:13:59.005Z,241.88
2022-09-23T07:14:59.007Z,241.88
2022-09-23T07:15:59.040Z,247.50
2022-09-23T07:16:59.003Z,253.12
2022-09-23T07:17:58.986Z,253.12
2022-09-23T07:18:59.240Z,253.12
2022-09-23T07:19:58.954Z,253.12
2022-09-23T07:20:59.688Z,258.75
2022-09-23T07:21:58.940Z,258.75
2022-09-23T07:22:58.927Z,258.75
2022-09-23T07:23:58.908Z,258.75
2022-09-23T07:24:58.896Z,258.75
2022-09-23T07:25:58.896Z,258.75
2022-09-23T07:26:58.868Z,264.38
2022-09-23T07:27:58.859Z,264.38
2022-09-23T07:28:58.849Z,270.00
2022-09-23T07:29:58.848Z,270.00
2022-09-23T07:31:00.943Z,275.62
2022-09-23T07:32:10.329Z,275.62
2022-09-23T07:32:59.932Z,275.62
2022-09-23T07:33:58.866Z,281.25
2022-09-23T07:34:58.798Z,281.25
2022-09-23T07:35:58.975Z,286.88
2022-09-23T07:36:58.762Z,286.88
2022-09-23T07:37:58.780Z,230.62
2022-09-23T07:38:58.759Z,236.25
2022-09-23T07:39:58.741Z,298.12
2022-09-23T07:40:58.752Z,286.88
2022-09-23T07:41:58.711Z,298.12
2022-09-23T07:42:58.721Z,303.75
2022-09-23T07:43:58.713Z,303.75
2022-09-23T07:44:58.833Z,303.75
2022-09-23T07:45:58.886Z,303.75
2022-09-23T07:46:58.701Z,309.38
2022-09-23T07:47:58.648Z,303.75
2022-09-23T07:48:59.771Z,292.50
2022-09-23T07:49:58.645Z,286.88
2022-09-23T07:50:58.644Z,264.38
2022-09-23T07:51:58.614Z,309.38
2022-09-23T07:52:58.614Z,315.00
2022-09-23T07:53:58.607Z,315.00
2022-09-23T07:54:58.581Z,315.00
2022-09-23T07:55:58.582Z,320.62
2022-09-23T07:56:58.556Z,320.62
2022-09-23T07:57:58.545Z,320.62
2022-09-23T07:58:58.566Z,331.88
2022-09-23T07:59:58.561Z,326.25
2022-09-23T08:00:58.524Z,326.25
2022-09-23T08:01:58.576Z,331.88
2022-09-23T08:02:58.582Z,337.50
2022-09-23T08:03:58.515Z,331.88
2022-09-23T08:04:58.479Z,331.88
2022-09-23T08:05:58.477Z,348.75
2022-09-23T08:06:58.504Z,337.50
2022-09-23T08:07:58.468Z,320.62
2022-09-23T08:08:58.446Z,331.88
2022-09-23T08:09:58.500Z,354.38
2022-09-23T08:10:58.427Z,348.75
2022-09-23T08:11:58.438Z,343.12
2022-09-23T08:12:58.395Z,337.50
2022-09-23T08:13:58.563Z,331.88
2022-09-23T08:14:58.377Z,337.50
2022-09-23T08:15:58.420Z,343.12
2022-09-23T08:16:58.351Z,343.12
2022-09-23T08:17:58.419Z,348.75
2022-09-23T08:18:58.860Z,354.38
2022-09-23T08:19:58.326Z,360.00
2022-09-23T08:20:58.312Z,360.00
2022-09-23T08:21:58.471Z,365.62
2022-09-23T08:22:58.680Z,365.62
2022-09-23T08:23:58.260Z,371.25
2022-09-23T08:24:58.280Z,365.62
2022-09-23T08:25:59.466Z,365.62
2022-09-23T08:26:58.238Z,371.25
2022-09-23T08:27:58.340Z,371.25
2022-09-23T08:28:58.214Z,365.62
2022-09-23T08:29:58.223Z,354.38
2022-09-23T08:30:58.217Z,343.12
2022-09-23T08:31:58.230Z,315.00
2022-09-23T08:32:58.189Z,348.75
2022-09-23T08:33:58.171Z,343.12
2022-09-23T08:34:58.153Z,348.75
2022-09-23T08:35:58.142Z,354.38
2022-09-23T08:36:58.168Z,354.38
2022-09-23T08:37:58.564Z,331.88
2022-09-23T08:38:58.123Z,343.12
2022-09-23T08:39:58.115Z,354.38
2022-09-23T08:40:58.112Z,360.00
2022-09-23T08:41:59.186Z,360.00
2022-09-23T08:42:58.064Z,365.62
2022-09-23T08:43:58.053Z,371.25
2022-09-23T08:44:58.065Z,371.25
2022-09-23T08:45:58.199Z,354.38
2022-09-23T08:46:58.026Z,354.38
2022-09-23T08:47:58.034Z,365.62
2022-09-23T08:48:59.370Z,360.00
2022-09-23T08:49:58.015Z,354.38
2022-09-23T08:50:58.006Z,348.75
2022-09-23T08:51:57.974Z,354.38
2022-09-23T08:52:57.957Z,360.00
2022-09-23T08:53:57.959Z,360.00
2022-09-23T08:54:57.939Z,360.00
2022-09-23T08:55:57.934Z,371.25
2022-09-23T08:56:57.939Z,382.50
2022-09-23T08:58:23.294Z,388.12
2022-09-23T08:58:58.898Z,388.12
2022-09-23T08:59:57.897Z,393.75
2022-09-23T09:00:57.917Z,405.00
2022-09-23T09:01:57.927Z,405.00
2022-09-23T09:02:57.895Z,393.75
2022-09-23T09:03:57.843Z,405.00
2022-09-23T09:04:57.850Z,410.62
2022-09-23T09:05:57.823Z,382.50
2022-09-23T09:07:12.499Z,388.12
2022-09-23T09:07:58.810Z,393.75
2022-09-23T09:08:57.780Z,410.62
2022-09-23T09:09:57.783Z,410.62
2022-09-23T09:10:57.780Z,416.25
2022-09-23T09:11:57.784Z,410.62
2022-09-23T09:12:57.752Z,382.50
2022-09-23T09:13:57.731Z,421.88
2022-09-23T09:14:57.733Z,427.50
2022-09-23T09:15:57.772Z,438.75
2022-09-23T09:17:00.341Z,438.75
2022-09-23T09:17:57.692Z,438.75
2022-09-23T09:18:59.082Z,438.75
2022-09-23T09:19:57.683Z,444.38
2022-09-23T09:20:57.696Z,444.38
2022-09-23T09:21:57.654Z,427.50
2022-09-23T09:22:57.898Z,365.62
2022-09-23T09:23:57.645Z,399.38
2022-09-23T09:24:57.649Z,450.00
2022-09-23T09:25:57.772Z,455.62
2022-09-23T09:26:57.598Z,450.00
2022-09-23T09:27:57.605Z,461.25
2022-09-23T09:29:06.594Z,455.62
2022-09-23T09:29:58.573Z,461.25
2022-09-23T09:30:57.611Z,466.88
2022-09-23T09:31:57.560Z,466.88
2022-09-23T09:32:57.551Z,472.50
2022-09-23T09:33:57.562Z,472.50
2022-09-23T09:34:57.531Z,472.50
2022-09-23T09:35:57.532Z,466.88
2022-09-23T09:36:57.508Z,466.88
2022-09-23T09:37:57.507Z,466.88
2022-09-23T09:38:57.509Z,466.88
2022-09-23T09:39:57.478Z,466.88
2022-09-23T09:40:57.491Z,466.88
2022-09-23T09:41:57.456Z,461.25
2022-09-23T09:42:57.444Z,461.25
2022-09-23T09:43:57.480Z,455.62
2022-09-23T09:44:57.435Z,455.62
2022-09-23T09:45:58.221Z,444.38
2022-09-23T09:46:57.481Z,433.12
2022-09-23T09:47:57.412Z,444.38
2022-09-23T09:48:59.314Z,455.62
2022-09-23T09:49:57.370Z,472.50
2022-09-23T09:50:57.361Z,478.12
2022-09-23T09:51:57.353Z,483.75
2022-09-23T09:52:57.308Z,495.00
2022-09-23T09:53:57.321Z,500.62
2022-09-23T09:54:57.279Z,500.62
2022-09-23T09:56:00.860Z,511.88
2022-09-23T09:56:58.246Z,511.88
2022-09-23T09:57:57.245Z,511.88
2022-09-23T09:58:57.226Z,500.62
2022-09-23T09:59:57.218Z,489.38
2022-09-23T10:00:57.198Z,455.62
2022-09-23T10:01:57.201Z,483.75
2022-09-23T10:02:57.200Z,483.75
2022-09-23T10:03:59.543Z,511.88
2022-09-23T10:04:57.167Z,528.75
2022-09-23T10:05:57.179Z,545.62
2022-09-23T10:06:57.149Z,540.00
2022-09-23T10:07:57.120Z,540.00
2022-09-23T10:08:57.148Z,528.75
2022-09-23T10:10:01.862Z,556.88
2022-09-23T10:10:58.099Z,534.38
2022-09-23T10:11:57.102Z,540.00
2022-09-23T10:12:57.098Z,562.50
2022-09-23T10:13:57.067Z,551.25
2022-09-23T10:14:57.059Z,551.25
2022-09-23T10:15:57.067Z,562.50
2022-09-23T10:16:57.055Z,568.12
2022-09-23T10:17:57.037Z,573.75
2022-09-23T10:18:57.129Z,534.38
2022-09-23T10:19:56.998Z,568.12
2022-09-23T10:20:57.001Z,410.62
2022-09-23T10:21:57.030Z,360.00
2022-09-23T10:22:56.972Z,382.50
2022-09-23T10:23:56.974Z,511.88
2022-09-23T10:24:56.951Z,511.88
2022-09-23T10:25:56.970Z,517.50
2022-09-23T10:26:56.932Z,517.50
2022-09-23T10:27:56.921Z,506.25
2022-09-23T10:28:56.911Z,528.75
2022-09-23T10:29:56.905Z,489.38
2022-09-23T10:30:56.937Z,523.12
2022-09-23T10:31:56.872Z,517.50
2022-09-23T10:32:56.871Z,517.50
2022-09-23T10:33:56.864Z,500.62
2022-09-23T10:34:56.849Z,433.12
2022-09-23T10:35:56.863Z,472.50
2022-09-23T10:36:56.855Z,472.50
2022-09-23T10:37:56.821Z,472.50
2022-09-23T10:38:56.811Z,489.38
2022-09-23T10:39:56.799Z,472.50
2022-09-23T10:40:56.893Z,461.25
2022-09-23T10:41:56.801Z,506.25
2022-09-23T10:42:56.783Z,540.00
2022-09-23T10:43:56.761Z,545.62
2022-09-23T10:44:56.762Z,562.50
2022-09-23T10:45:56.792Z,573.75
2022-09-23T10:46:56.752Z,573.75
2022-09-23T10:47:56.722Z,579.38
2022-09-23T10:48:56.718Z,579.38
2022-09-23T10:49:56.697Z,579.38
2022-09-23T10:50:58.979Z,551.25
2022-09-23T10:51:56.710Z,534.38
2022-09-23T10:52:56.681Z,540.00
2022-09-23T10:53:56.660Z,545.62
2022-09-23T10:54:56.663Z,534.38
2022-09-23T10:55:56.668Z,523.12
2022-09-23T10:56:59.091Z,534.38
2022-09-23T10:57:56.622Z,540.00
2022-09-23T10:58:56.628Z,540.00
2022-09-23T10:59:56.626Z,556.88
2022-09-23T11:00:56.658Z,568.12
2022-09-23T11:01:56.626Z,568.12
2022-09-23T11:02:56.574Z,568.12
2022-09-23T11:03:56.573Z,545.62
2022-09-23T11:04:56.704Z,545.62
2022-09-23T11:05:56.548Z,528.75
2022-09-23T11:06:56.540Z,528.75
2022-09-23T11:07:56.527Z,523.12
2022-09-23T11:08:56.541Z,517.50
2022-09-23T11:09:56.510Z,511.88
2022-09-23T11:10:56.500Z,511.88
2022-09-23T11:11:56.495Z,517.50
2022-09-23T11:12:56.473Z,517.50
2022-09-23T11:13:56.492Z,511.88
2022-09-23T11:14:56.480Z,506.25
2022-09-23T11:15:56.455Z,495.00
2022-09-23T11:16:56.482Z,472.50
2022-09-23T11:17:56.435Z,466.88
2022-09-23T11:18:56.446Z,500.62
2022-09-23T11:19:56.419Z,495.00
2022-09-23T11:20:56.420Z,461.25
2022-09-23T11:21:56.398Z,450.00
2022-09-23T11:22:56.382Z,472.50
2022-09-23T11:23:56.380Z,483.75
2022-09-23T11:24:56.385Z,495.00
2022-09-23T11:25:56.356Z,478.12
2022-09-23T11:26:56.343Z,472.50
2022-09-23T11:27:56.337Z,466.88
2022-09-23T11:28:56.333Z,489.38
2022-09-23T11:29:56.345Z,500.62
2022-09-23T11:30:56.326Z,500.62
2022-09-23T11:31:59.559Z,489.38
2022-09-23T11:32:56.350Z,478.12
2022-09-23T11:33:56.278Z,489.38
2022-09-23T11:34:56.283Z,500.62
2022-09-23T11:35:56.248Z,528.75
2022-09-23T11:36:56.250Z,562.50
2022-09-23T11:37:56.248Z,590.62
2022-09-23T11:38:56.251Z,579.38
2022-09-23T11:39:56.221Z,540.00
2022-09-23T11:40:56.238Z,506.25
2022-09-23T11:41:56.191Z,506.25
2022-09-23T11:42:56.195Z,500.62
2022-09-23T11:43:56.172Z,511.88
2022-09-23T11:44:56.220Z,523.12
2022-09-23T11:45:56.205Z,545.62
2022-09-23T11:46:56.151Z,540.00
2022-09-23T11:47:56.166Z,528.75
2022-09-23T11:48:56.124Z,528.75
2022-09-23T11:49:56.113Z,528.75
2022-09-23T11:50:56.097Z,523.12
2022-09-23T11:51:56.115Z,511.88
2022-09-23T11:52:56.083Z,495.00
2022-09-23T11:53:56.077Z,506.25
2022-09-23T11:54:56.169Z,517.50
2022-09-23T11:55:58.393Z,534.38
2022-09-23T11:56:56.047Z,534.38
2022-09-23T11:57:56.061Z,528.75
2022-09-23T11:59:04.285Z,511.88
2022-09-23T11:59:57.021Z,523.12
2022-09-23T12:01:00.510Z,523.12
2022-09-23T12:01:57.267Z,523.12
2022-09-23T12:03:03.770Z,517.50
2022-09-23T12:03:57.747Z,517.50
2022-09-23T12:04:58.350Z,506.25
2022-09-23T12:05:56.109Z,517.50
2022-09-23T12:06:55.951Z,517.50
2022-09-23T12:07:55.934Z,472.50
2022-09-23T12:08:55.928Z,393.75
2022-09-23T12:09:58.562Z,438.75
2022-09-23T12:10:55.925Z,517.50
2022-09-23T12:11:55.896Z,545.62
2022-09-23T12:12:55.884Z,365.62
2022-09-23T12:13:55.865Z,393.75
2022-09-23T12:14:55.863Z,483.75
2022-09-23T12:15:55.852Z,410.62
2022-09-23T12:16:55.965Z,551.25
2022-09-23T12:17:55.834Z,573.75
2022-09-23T12:18:55.819Z,568.12
2022-09-23T12:19:55.809Z,562.50
2022-09-23T12:20:55.799Z,568.12
2022-09-23T12:21:55.818Z,573.75
2022-09-23T12:22:55.770Z,573.75
2022-09-23T12:23:55.960Z,579.38
2022-09-23T12:24:55.788Z,573.75
2022-09-23T12:25:55.776Z,528.75
2022-09-23T12:26:55.762Z,551.25
2022-09-23T12:27:55.736Z,551.25
2022-09-23T12:28:55.730Z,534.38
2022-09-23T12:29:55.705Z,517.50
2022-09-23T12:30:55.723Z,517.50
2022-09-23T12:31:55.730Z,500.62
2022-09-23T12:32:55.687Z,517.50
2022-09-23T12:33:55.666Z,489.38
2022-09-23T12:34:55.659Z,489.38
2022-09-23T12:35:55.707Z,455.62
2022-09-23T12:36:55.653Z,450.00
2022-09-23T12:37:55.631Z,466.88
2022-09-23T12:38:55.647Z,472.50
2022-09-23T12:39:55.604Z,478.12
2022-09-23T12:40:55.623Z,472.50
2022-09-23T12:41:55.576Z,478.12
2022-09-23T12:42:55.587Z,500.62
2022-09-23T12:43:55.559Z,517.50
2022-09-23T12:44:55.581Z,500.62
2022-09-23T12:45:55.600Z,483.75
2022-09-23T12:46:55.543Z,495.00